createdAt,value
2022-10-13T00:00:28.600Z,60.68
2022-10-13T00:05:51.452Z,65.93
2022-10-13T00:10:53.847Z,63.82
2022-10-13T00:15:56.324Z,58.34
2022-10-13T00:20:59.002Z,58.53
2022-10-13T00:26:02.842Z,61.44
2022-10-13T00:31:08.195Z,66.74
2022-10-13T00:36:10.599Z,61.06
2022-10-13T00:41:13.075Z,57.21
2022-10-13T00:46:16.065Z,60.95
2022-10-13T00:51:21.306Z,67.05
2022-10-13T00:56:25.694Z,62.65
2022-10-13T01:01:28.659Z,58.00
2022-10-13T01:06:31.203Z,59.65
2022-10-13T01:11:36.515Z,65.33
2022-10-13T01:16:43.797Z,64.14
2022-10-13T01:21:49.115Z,59.33
2022-10-13T01:26:51.475Z,58.04
2022-10-13T01:31:56.794Z,62.34
2022-10-13T01:37:02.100Z,67.01
2022-10-13T01:42:11.396Z,60.63
2022-10-13T01:47:15.581Z,57.24
2022-10-13T01:52:20.460Z,60.97
2022-10-13T01:57:25.939Z,67.84
2022-10-13T02:02:31.934Z,64.60
2022-10-13T02:07:43.799Z,60.43
2022-10-13T02:12:49.131Z,57.64
2022-10-13T02:17:52.454Z,61.70
2022-10-13T02:22:57.381Z,68.25
2022-10-13T02:28:00.729Z,62.96
2022-10-13T02:33:03.324Z,60.18
2022-10-13T02:38:06.039Z,57.68
2022-10-13T02:43:08.451Z,61.24
2022-10-13T02:48:11.023Z,67.75
2022-10-13T02:53:13.418Z,62.38
2022-10-13T02:58:15.887Z,59.04
2022-10-13T03:03:18.307Z,57.99
2022-10-13T03:08:20.689Z,61.18
2022-10-13T03:13:23.183Z,67.30
2022-10-13T03:18:25.905Z,63.93
2022-10-13T03:23:28.493Z,58.38
2022-10-13T03:28:31.307Z,57.84
2022-10-13T03:33:33.825Z,60.84
2022-10-13T03:38:36.897Z,66.18
2022-10-13T03:43:39.881Z,65.47
2022-10-13T03:48:56.309Z,59.72
2022-10-13T03:53:58.707Z,57.50
2022-10-13T03:59:04.760Z,61.42
2022-10-13T04:04:10.253Z,67.84
2022-10-13T04:09:13.080Z,62.07
2022-10-13T04:14:15.457Z,58.00
2022-10-13T04:19:17.981Z,58.92
2022-10-13T04:24:20.447Z,64.12
2022-10-13T04:29:22.821Z,65.98
2022-10-13T04:34:25.259Z,60.24
2022-10-13T04:39:27.636Z,57.09
2022-10-13T04:44:31.005Z,60.27
2022-10-13T04:49:33.772Z,65.59
2022-10-13T04:54:36.165Z,66.34
2022-10-13T04:59:38.585Z,60.74
2022-10-13T05:04:41.005Z,56.98
2022-10-13T05:09:43.381Z,59.95
2022-10-13T05:14:45.873Z,62.13
2022-10-13T05:19:48.813Z,68.96
2022-10-13T05:24:51.225Z,62.63
2022-10-13T05:29:53.655Z,58.35
2022-10-13T05:34:56.036Z,56.89
2022-10-13T05:39:58.428Z,60.60
2022-10-13T05:45:00.856Z,63.11
2022-10-13T05:50:03.461Z,69.06
2022-10-13T05:55:08.996Z,61.73
2022-10-13T06:00:13.611Z,57.07
2022-10-13T06:05:18.129Z,58.82
2022-10-13T06:10:20.694Z,60.46
2022-10-13T06:15:27.849Z,63.73
2022-10-13T06:20:30.945Z,68.88
2022-10-13T06:25:33.402Z,61.37
2022-10-13T06:30:38.066Z,56.71
2022-10-13T06:35:40.562Z,59.68
2022-10-13T06:40:43.392Z,61.75
2022-10-13T06:45:45.854Z,67.61
2022-10-13T06:50:48.407Z,61.70
2022-10-13T06:55:52.555Z,56.83
2022-10-13T07:00:55.553Z,58.80
2022-10-13T07:06:00.758Z,59.86
2022-10-13T07:11:06.073Z,60.79
2022-10-13T07:16:09.056Z,67.03
2022-10-13T07:21:11.477Z,59.67
2022-10-13T07:26:14.912Z,55.10
2022-10-13T07:31:18.458Z,56.89
2022-10-13T07:36:20.908Z,58.36
2022-10-13T07:41:23.658Z,58.96
2022-10-13T07:46:26.092Z,60.12
2022-10-13T07:51:28.615Z,60.55
2022-10-13T07:56:31.111Z,61.00
2022-10-13T08:01:33.578Z,61.76
2022-10-13T08:06:36.031Z,62.46
2022-10-13T08:11:38.600Z,65.33
2022-10-13T08:16:44.286Z,54.90
2022-10-13T08:22:02.269Z,54.64
2022-10-13T08:27:04.783Z,56.91
2022-10-13T08:32:07.229Z,57.22
2022-10-13T08:37:12.543Z,58.51
2022-10-13T08:42:18.631Z,59.51
2022-10-13T08:47:24.133Z,59.94
2022-10-13T08:52:27.906Z,59.75
2022-10-13T08:57:30.538Z,59.49
2022-10-13T09:02:33.077Z,59.65
2022-10-13T09:07:37.079Z,63.25
2022-10-13T09:12:39.509Z,53.91
2022-10-13T09:17:42.173Z,52.40
2022-10-13T09:22:45.273Z,53.76
2022-10-13T09:27:49.958Z,54.33
2022-10-13T09:32:55.335Z,54.82
2022-10-13T09:38:00.725Z,55.25
2022-10-13T09:43:20.319Z,55.68
2022-10-13T09:48:25.327Z,56.34
2022-10-13T09:53:32.444Z,54.76
2022-10-13T09:58:38.431Z,56.05
2022-10-13T10:03:41.112Z,55.34
2022-10-13T10:09:02.750Z,56.34
2022-10-13T10:14:09.337Z,53.92
2022-10-13T10:19:12.721Z,54.89
2022-10-13T10:24:18.159Z,55.07
2022-10-13T10:29:23.604Z,55.56
2022-10-13T10:34:28.825Z,53.55
2022-10-13T10:39:34.557Z,53.94
2022-10-13T10:44:41.216Z,54.12
2022-10-13T10:49:44.236Z,53.18
2022-10-13T10:54:51.628Z,53.28
2022-10-13T10:59:56.949Z,52.96
2022-10-13T11:05:05.213Z,52.67
2022-10-13T11:10:09.832Z,52.21
2022-10-13T11:15:16.265Z,50.78
2022-10-13T11:20:20.701Z,54.25
2022-10-13T11:25:26.193Z,52.12
2022-10-13T11:30:31.669Z,49.94
2022-10-13T11:35:34.060Z,49.30
2022-10-13T11:40:39.408Z,48.23
2022-10-13T11:45:47.305Z,50.81
2022-10-13T11:50:49.723Z,50.01
2022-10-13T11:55:52.174Z,49.17
2022-10-13T12:00:55.532Z,49.46
2022-10-13T12:06:00.755Z,50.39
2022-10-13T12:11:07.374Z,49.40
2022-10-13T12:16:13.445Z,50.23
2022-10-13T12:27:56.193Z,48.06
2022-10-13T12:32:59.734Z,47.99
2022-10-13T12:38:05.064Z,48.95
2022-10-13T12:43:07.523Z,48.81
2022-10-13T12:48:28.764Z,50.45
2022-10-13T12:53:31.220Z,50.89
2022-10-13T12:58:34.727Z,50.12
2022-10-13T13:03:38.389Z,50.19
2022-10-13T13:08:42.492Z,49.93
2022-10-13T13:13:44.884Z,50.54
2022-10-13T13:18:48.414Z,50.02
2022-10-13T13:23:53.773Z,49.68
2022-10-13T13:28:56.905Z,49.79
2022-10-13T13:33:59.350Z,50.25
2022-10-13T13:39:01.693Z,50.39
2022-10-13T13:44:04.124Z,50.44
2022-10-13T13:49:06.524Z,50.68
2022-10-13T13:54:08.880Z,50.93
2022-10-13T13:59:13.750Z,50.53
2022-10-13T14:04:16.087Z,50.51
2022-10-13T14:09:18.594Z,50.81
2022-10-13T14:14:21.406Z,50.23
2022-10-13T14:19:23.832Z,48.73
2022-10-13T14:24:26.169Z,47.12
2022-10-13T14:29:28.533Z,45.57
2022-10-13T14:34:31.118Z,45.20
2022-10-13T14:39:33.715Z,45.16
2022-10-13T14:44:36.183Z,46.28
2022-10-13T14:49:38.601Z,47.83
2022-10-13T14:54:44.676Z,49.12
2022-10-13T14:59:47.576Z,50.59
2022-10-13T15:04:49.976Z,51.49
2022-10-13T15:10:04.182Z,52.17
2022-10-13T15:15:08.435Z,53.44
2022-10-13T15:20:11.044Z,54.60
2022-10-13T15:25:13.651Z,55.40
2022-10-13T15:30:16.046Z,56.63
2022-10-13T15:35:18.400Z,57.48
2022-10-13T15:40:20.743Z,57.71
2022-10-13T15:45:23.078Z,57.86
2022-10-13T15:50:25.533Z,58.21
2022-10-13T15:55:28.662Z,58.76
2022-10-13T16:00:31.157Z,59.38
2022-10-13T16:05:33.621Z,60.00
2022-10-13T16:10:38.195Z,60.54
2022-10-13T16:15:41.186Z,61.07
2022-10-13T16:20:45.300Z,61.90
2022-10-13T16:25:47.885Z,62.17
2022-10-13T16:30:50.303Z,63.35
2022-10-13T16:36:01.240Z,74.09
2022-10-13T16:41:06.797Z,65.13
2022-10-13T16:46:12.781Z,58.37
2022-10-13T16:51:16.741Z,56.31
2022-10-13T16:56:22.253Z,59.09
2022-10-13T17:01:25.732Z,60.64
2022-10-13T17:06:28.670Z,62.29
2022-10-13T17:11:31.867Z,70.22
2022-10-13T17:16:35.573Z,63.31
2022-10-13T17:21:38.050Z,57.48
2022-10-13T17:26:40.432Z,57.93
2022-10-13T17:31:43.768Z,60.56
2022-10-13T17:36:46.270Z,63.60
2022-10-13T17:41:48.870Z,68.48
2022-10-13T17:46:51.352Z,61.33
2022-10-13T17:51:54.586Z,56.74
2022-10-13T17:56:57.182Z,59.61
2022-10-13T18:01:59.682Z,62.79
2022-10-13T18:07:02.153Z,67.99
2022-10-13T18:12:04.629Z,61.14
2022-10-13T18:17:07.221Z,56.51
2022-10-13T18:22:09.594Z,59.41
2022-10-13T18:27:12.157Z,61.69
2022-10-13T18:32:14.538Z,68.18
2022-10-13T18:37:16.945Z,63.94
2022-10-13T18:42:19.333Z,58.26
2022-10-13T18:47:22.189Z,58.30
2022-10-13T18:52:24.924Z,62.14
2022-10-13T18:57:27.317Z,67.99
2022-10-13T19:09:00.460Z,57.00
2022-10-13T19:14:04.149Z,60.44
2022-10-13T19:19:08.807Z,62.85
2022-10-13T19:24:11.524Z,69.35
2022-10-13T19:29:15.505Z,62.52
2022-10-13T19:34:17.890Z,57.33
2022-10-13T19:40:11.273Z,58.67
2022-10-13T19:45:13.810Z,64.85
2022-10-13T19:50:16.219Z,66.70
2022-10-13T19:55:18.631Z,60.28
2022-10-13T20:00:21.094Z,56.89
2022-10-13T20:05:25.585Z,60.40
2022-10-13T20:10:28.071Z,65.14
2022-10-13T20:15:30.485Z,66.79
2022-10-13T20:20:34.212Z,60.63
2022-10-13T20:25:37.763Z,56.71
2022-10-13T20:30:40.224Z,59.67
2022-10-13T20:35:42.628Z,62.42
2022-10-13T20:40:45.086Z,68.66
2022-10-13T20:45:47.450Z,61.79
2022-10-13T20:50:49.829Z,56.64
2022-10-13T20:55:55.456Z,58.64
2022-10-13T21:00:57.975Z,62.54
2022-10-13T21:06:01.807Z,67.93
2022-10-13T21:11:06.808Z,61.04
2022-10-13T21:16:11.205Z,56.66
2022-10-13T21:21:13.981Z,59.95
2022-10-13T21:26:21.417Z,64.46
2022-10-13T21:31:24.703Z,66.20
2022-10-13T21:36:29.149Z,59.12
2022-10-13T21:41:31.651Z,57.17
2022-10-13T21:46:34.617Z,60.17
2022-10-13T21:51:38.347Z,63.03
2022-10-13T21:56:41.127Z,68.35
2022-10-13T22:01:43.965Z,61.25
2022-10-13T22:06:46.527Z,57.00
2022-10-13T22:11:52.842Z,60.37
2022-10-13T22:16:58.025Z,66.38
2022-10-13T22:22:00.457Z,63.38
2022-10-13T22:27:02.990Z,58.07
2022-10-13T22:32:05.537Z,58.81
2022-10-13T22:37:07.956Z,65.26
2022-10-13T22:42:10.348Z,64.24
2022-10-13T22:47:12.862Z,58.45
2022-10-13T22:52:15.243Z,58.16
2022-10-13T22:57:17.723Z,63.57
2022-10-13T23:02:20.130Z,66.70
2022-10-13T23:07:23.096Z,59.79
2022-10-13T23:12:25.818Z,57.20
2022-10-13T23:24:18.066Z,66.72
2022-10-13T23:29:20.477Z,60.00
2022-10-13T23:34:22.907Z,56.99
2022-10-13T23:39:25.438Z,60.68
2022-10-13T23:44:29.805Z,66.37
2022-10-13T23:49:32.241Z,64.66
2022-10-13T23:54:34.681Z,58.27
2022-10-13T23:59:37.275Z,58.17
